ADDS METAR Data INFO
IDs: Format: Raw Decoded Include TAF

Data at: 0836 UTC 21 Oct 2017

K04V 210812Z AUTO 33012G19KT 3SM UP BKN014 BKN019 OVC048 03/02 A2988 RMK AO2
K04V 210754Z AUTO 32017G20KT 5SM RA BKN019 BKN036 OVC070 03/02 A2990 RMK AO2 LTG DSNT NE
K04V 210730Z AUTO 33019G26KT 7SM RA SCT022 BKN029 OVC070 04/02 A2986 RMK AO2
K04V 210712Z AUTO 32019G23KT 10SM RA SCT015 BKN034 OVC070 06/03 A2986 RMK AO2 LTG DSNT NW
K04V 210648Z AUTO 32020G26KT 7SM DZ SCT019 SCT042 BKN055 07/02 A2984 RMK AO2
K04V 210630Z AUTO 30006KT 10SM CLR 07/00 A2981 RMK AO2
K04V 210612Z AUTO 32006KT 10SM SCT075 SCT100 08/00 A2981 RMK AO2
K04V 210548Z AUTO 26008KT 10SM OVC090 09/00 A2981 RMK AO2
K04V 210530Z AUTO 27017KT 10SM BKN090 08/00 A2981 RMK AO2
K04V 210512Z AUTO 24006KT 10SM SCT100 08/M01 A2981 RMK AO2
K04V 210454Z AUTO 28007KT 10SM CLR 10/00 A2981 RMK AO2
K04V 210430Z AUTO 25012G21KT 10SM CLR 08/M01 A2981 RMK AO2
K04V 210412Z AUTO 29004KT 10SM SCT090 SCT120 08/M04 A2981 RMK AO2
K04V 210354Z AUTO 33008KT 10SM SCT090 BKN120 07/M05 A2982 RMK AO2
K04V 210330Z AUTO 31004KT 10SM SCT090 07/M05 A2981 RMK AO2
K04V 210312Z AUTO 00000KT 10SM CLR 07/M05 A2981 RMK AO2
K04V 210254Z AUTO 06003KT 10SM CLR 06/M05 A2982 RMK AO2
K04V 210230Z AUTO 09004KT 10SM CLR 08/M05 A2982 RMK AO2
K04V 210212Z AUTO 12005KT 10SM CLR 10/M05 A2983 RMK AO2
K04V 210154Z AUTO 00000KT 10SM CLR 11/M05 A2983 RMK AO2
K04V 210130Z AUTO 00000KT 10SM CLR 11/M05 A2983 RMK AO2
K04V 210112Z AUTO 28006G14KT 10SM CLR 12/M05 A2983 RMK AO2
K04V 210054Z AUTO 28006KT 10SM CLR 12/M05 A2982 RMK AO2
K04V 210030Z AUTO 25009G14KT 10SM CLR 12/M05 A2982 RMK AO2
K04V 210012Z AUTO 25009KT 10SM CLR 13/M05 A2981 RMK AO2
K04V 202354Z AUTO 25017G22KT 10SM CLR 15/M05 A2980 RMK AO2
K04V 202330Z AUTO 25016G23KT 10SM CLR 16/M05 A2981 RMK AO2
K04V 202312Z AUTO 24013G23KT 10SM CLR 17/M05 A2980 RMK AO2
K04V 202253Z AUTO 23017G21KT 10SM CLR 17/M05 A2979 RMK AO2
K04V 202229Z AUTO 26017G24KT 10SM CLR 18/M05 A2981 RMK AO2
K04V 202212Z AUTO 25020G25KT 10SM CLR 18/M05 A2980 RMK AO2
K04V 202151Z AUTO 25021G26KT 10SM CLR 18/M05 A2981 RMK AO2
K04V 202134Z AUTO 25018G24KT 10SM CLR 19/M05 A2982 RMK AO2
K04V 202112Z AUTO 25016G20KT 10SM CLR 19/M05 A2982 RMK AO2
K04V 202054Z AUTO 25017G25KT 10SM CLR 18/M04 A2983 RMK AO2
K04V 202030Z AUTO 25020G25KT 10SM CLR 18/M05 A2984 RMK AO2
K04V 202012Z AUTO 25021G26KT 10SM CLR 18/M04 A2985 RMK AO2
K04V 201954Z AUTO 26015G24KT 10SM SCT090 18/M05 A2985 RMK AO2
K04V 201930Z AUTO 27004KT 10SM SCT080 SCT090 16/M01 A2986 RMK AO2
K04V 201912Z AUTO 21012G21KT 162V232 10SM SCT080 SCT090 17/M01 A2986 RMK AO2
K04V 201852Z AUTO 17010G16KT 162V222 10SM SCT085 18/M01 A2988 RMK AO2
K04V 201834Z AUTO 15005KT 10SM CLR 16/00 A2990 RMK AO2
K04V 201812Z AUTO 10005KT 10SM CLR 15/01 A2992 RMK AO2
K04V 201754Z AUTO 16007KT 10SM CLR 13/01 A2994 RMK AO2
K04V 201730Z AUTO 14008KT 10SM CLR 12/00 A2995 RMK AO2
K04V 201712Z AUTO 15006KT 10SM CLR 12/01 A2999 RMK AO2
K04V 201652Z AUTO 16005KT 10SM CLR 11/00 A3000 RMK AO2
K04V 201629Z AUTO 12004KT 10SM CLR 10/00 A3001 RMK AO2
K04V 201611Z AUTO 13004KT 10SM CLR 09/00 A3001 RMK AO2
K04V 201553Z AUTO 00000KT 10SM CLR 08/00 A3002 RMK AO2
K04V 201529Z AUTO 00000KT 10SM CLR 07/M01 A3003 RMK AO2
K04V 201511Z AUTO 00000KT 10SM CLR 06/M02 A3003 RMK AO2
K04V 201453Z AUTO 00000KT 10SM CLR 06/M02 A3004 RMK AO2
K04V 201430Z AUTO 00000KT 10SM CLR 03/M03 A3004 RMK AO2
K04V 201412Z AUTO 00000KT 10SM CLR 01/M05 A3004 RMK AO2
K04V 201352Z AUTO 00000KT 10SM CLR 00/M05 A3003 RMK AO2
K04V 201329Z AUTO 00000KT 10SM CLR M01/M05 A3003 RMK AO2
K04V 201312Z AUTO 32004KT 10SM CLR 00/M05 A3003 RMK AO2
K04V 201253Z AUTO 35006KT 10SM CLR 00/M05 A3003 RMK AO2
K04V 201229Z AUTO 32008KT 10SM CLR 00/M05 A3004 RMK AO2
K04V 201211Z AUTO 35004KT 10SM CLR 00/M06 A3004 RMK AO2
K04V 201154Z AUTO 33004KT 10SM CLR 00/M05 A3004 RMK AO2
K04V 201130Z AUTO 01007KT 10SM CLR 01/M05 A3005 RMK AO2
K04V 201112Z AUTO 33006KT 10SM CLR 00/M06 A3005 RMK AO2
K04V 201053Z AUTO 00000KT 10SM CLR 00/M07 A3005 RMK AO2
K04V 201030Z AUTO 29003KT 10SM CLR 02/M06 A3005 RMK AO2
K04V 201012Z AUTO 33005KT 10SM SCT110 01/M07 A3005 RMK AO2
K04V 200954Z AUTO 31004KT 10SM BKN110 02/M06 A3006 RMK AO2
K04V 200930Z AUTO 35003KT 10SM SCT090 OVC110 02/M06 A3006 RMK AO2
K04V 200912Z AUTO 00000KT 10SM BKN110 02/M07 A3007 RMK AO2
K04V 200854Z AUTO 00000KT 10SM SCT110 01/M07 A3008 RMK AO2
K04V 200830Z AUTO 14003KT 10SM SCT100 02/M07 A3008 RMK AO2
K04V 200812Z AUTO 11006KT 10SM SCT100 03/M07 A3008 RMK AO2
K04V 200754Z AUTO 00000KT 10SM SCT110 03/M06 A3009 RMK AO2
K04V 200730Z AUTO 13003KT 10SM BKN110 05/M06 A3008 RMK AO2
K04V 200712Z AUTO 30004KT 10SM OVC100 07/M06 A3008 RMK AO2
K04V 200654Z AUTO 30007KT 10SM BKN100 07/M07 A3008 RMK AO2
K04V 200630Z AUTO 00000KT 10SM SCT110 05/M06 A3009 RMK AO2
K04V 200612Z AUTO 35005KT 10SM BKN110 06/M07 A3009 RMK AO2
K04V 200554Z AUTO 34010KT 10SM BKN110 06/M07 A3009 RMK AO2
K04V 200530Z AUTO 32011KT 10SM SCT110 06/M07 A3010 RMK AO2
K04V 200512Z AUTO 33010KT 10SM SCT110 05/M07 A3010 RMK AO2
K04V 200454Z AUTO 33008KT 10SM CLR 05/M08 A3010 RMK AO2
K04V 200430Z AUTO 35009KT 10SM CLR 06/M08 A3010 RMK AO2
K04V 200412Z AUTO 34008KT 10SM CLR 07/M08 A3010 RMK AO2
K04V 200351Z AUTO 33011KT 10SM CLR 06/M07 A3011 RMK AO2
K04V 200333Z AUTO 32006KT 10SM CLR 05/M08 A3010 RMK AO2
K04V 200311Z AUTO 35005KT 10SM CLR 06/M08 A3010 RMK AO2
K04V 200251Z AUTO 30008KT 10SM CLR 07/M08 A3010 RMK AO2
K04V 200234Z AUTO 34006KT 10SM CLR 07/M08 A3010 RMK AO2
K04V 200212Z AUTO 32008KT 10SM CLR 08/M08 A3011 RMK AO2
K04V 200153Z AUTO 02007KT 10SM CLR 08/M08 A3010 RMK AO2
K04V 200130Z AUTO 02009KT 10SM CLR 09/M08 A3011 RMK AO2
K04V 200112Z AUTO 03008KT 10SM CLR 09/M08 A3010 RMK AO2
K04V 200053Z AUTO 03004KT 10SM CLR 08/M07 A3010 RMK AO2
K04V 200029Z AUTO 00000KT 10SM BKN110 13/M07 A3010 RMK AO2
K04V 200011Z AUTO 00000KT 10SM BKN110 15/M07 A3011 RMK AO2
K04V 192354Z AUTO 17003KT 10SM CLR 16/M07 A3011 RMK AO2
K04V 192330Z AUTO 18004KT 10SM CLR 17/M08 A3012 RMK AO2
K04V 192312Z AUTO 20004KT 10SM CLR 17/M08 A3012 RMK AO2
K04V 192251Z AUTO 18006KT 10SM CLR 17/M09 A3013 RMK AO2
K04V 192233Z AUTO 18006KT 10SM CLR 18/M08 A3013 RMK AO2
K04V 192211Z AUTO 21005KT 10SM CLR 18/M09 A3014 RMK AO2
K04V 192154Z AUTO 19007KT 10SM CLR 18/M09 A3014 RMK AO2
K04V 192130Z AUTO 17005KT 10SM CLR 17/M09 A3014 RMK AO2
K04V 192112Z AUTO 14007KT 10SM CLR 18/M08 A3015 RMK AO2
K04V 192054Z AUTO 15007KT 10SM CLR 18/M09 A3016 RMK AO2